Latest Weather Observations for Ballera

IDQ60801

Issued at 9:32 am EST Friday 26 May 2017 (issued every 30 minutes, with the page automatically refreshed every 10 minutes)

About weather observations | Map of weather stations | Latest weather observations for QLD | Other Formats
Station Details ID: 045009 Name: BALLERA GAS FIELD Lat: -27.40 Lon: 141.81 Height: 114.5 m
Data from the previous 72 hours. | See also: Recent months at Ballera
Date/Time
EST
Temp
°C
App
Temp
°C
Dew
Point
°C
Rel
Hum
%
Delta-T
°C
Wind Press
QNH
hPa
Press
MSL
hPa
Rain since
9am
mm
Dir  Spd
km/h
Gust
km/h
Spd
kts
Gust
kts
26/09:30am 17.0 12.8 5.9 48 5.4 E 17 20 9 11 1021.7 1021.4 0.0
26/09:00am 15.7 12.4 6.2 53 4.6 ESE 13 17 7 9 1021.5 1021.2 0.0
26/08:30am 14.6 11.6 6.2 57 4.1 ESE 11 13 6 7 1021.3 1021.0 0.0
26/08:00am 12.3 9.2 5.7 64 3.1 ESE 11 13 6 7 1020.9 1020.6 0.0
26/07:30am 10.1 6.5 4.9 70 2.4 ESE 13 15 7 8 1020.4 1020.2 0.0
26/07:00am 9.9 6.2 4.5 69 2.4 ESE 13 13 7 7 1020.1 1019.9 0.0
26/06:30am 10.4 7.1 4.8 68 2.5 ESE 11 13 6 7 1019.9 1019.7 0.0
26/06:00am 11.2 7.2 5.1 66 2.8 ESE 15 19 8 10 1019.5 1019.3 0.0
26/05:30am 11.8 7.2 5.4 65 3.0 ESE 19 22 10 12 1019.4 1019.2 0.0
26/05:00am 12.0 7.4 5.4 64 3.1 ESE 19 22 10 12 1019.8 1019.6 0.0
26/04:30am 12.7 8.5 5.6 62 3.3 SE 17 19 9 10 1019.7 1019.5 0.0
26/04:00am 12.6 9.1 5.3 61 3.4 SE 13 17 7 9 1019.8 1019.6 0.0
26/03:30am 13.2 9.3 5.4 59 3.7 SE 15 19 8 10 1019.9 1019.7 0.0
26/03:00am 13.5 9.6 5.4 58 3.8 SE 15 19 8 10 1020.1 1019.9 0.0
26/02:30am 13.5 10.0 5.4 58 3.8 SSE 13 19 7 10 1020.2 1020.0 0.0
26/02:00am 13.3 9.6 4.5 55 4.0 SSE 13 15 7 8 1020.4 1020.2 0.0
26/01:30am 13.5 9.8 4.4 54 4.2 SSE 13 15 7 8 1020.5 1020.3 0.0
26/01:00am 13.9 10.2 4.5 53 4.3 SSE 13 15 7 8 1020.8 1020.5 0.0
26/12:30am 13.8 10.0 4.1 52 4.5 SSE 13 15 7 8 1021.0 1020.7 0.0
26/12:00am 13.9 10.1 3.9 51 4.6 SSE 13 13 7 7 1021.2 1020.9 0.0
 
Date/Time
EST
Temp
°C
App
Temp
°C
Dew
Point
°C
Rel
Hum
%
Delta-T
°C
Wind Press
QNH
hPa
Press
MSL
hPa
Rain since
9am
mm
Dir  Spd
km/h
Gust
km/h
Spd
kts
Gust
kts
25/11:30pm 14.2 10.8 3.9 50 4.7 SSE 11 13 6 7 1021.3 1021.0 0.0
25/11:00pm 14.8 11.4 3.9 48 5.0 SSE 11 13 6 7 1021.4 1021.1 0.0
25/10:30pm 15.2 11.4 3.7 46 5.3 SSE 13 15 7 8 1021.3 1021.0 0.0
25/10:00pm 16.2 11.6 3.9 44 5.7 SSE 17 19 9 10 1021.2 1020.9 0.0
25/09:30pm 17.1 12.1 3.8 41 6.2 SSE 19 20 10 11 1021.0 1020.7 0.0
25/09:00pm 17.8 12.6 3.7 39 6.6 SSE 20 24 11 13 1020.9 1020.6 0.0
25/08:30pm 17.2 12.5 3.1 39 6.5 SSE 17 19 9 10 1020.6 1020.4 0.0
25/08:00pm 17.5 13.2 3.4 39 6.6 SSE 15 17 8 9 1020.5 1020.3 0.0
25/07:30pm 18.0 13.7 3.1 37 6.9 SSE 15 15 8 8 1020.2 1020.0 0.0
25/07:00pm 19.1 14.8 3.3 35 7.4 SE 15 17 8 9 1019.9 1019.7 0.0
25/06:30pm 20.0 16.1 3.3 33 7.9 SE 13 15 7 8 1019.6 1019.4 0.0
25/06:00pm 21.8 17.2 3.9 31 8.7 SE 17 20 9 11 1019.2 1019.0 0.0
25/05:30pm 22.8 17.8 3.4 28 9.4 SE 19 24 10 13 1019.1 1018.9 0.0
25/05:00pm 23.6 19.0 3.5 27 9.8 ESE 17 22 9 12 1019.0 1018.8 0.0
25/04:30pm 23.9 18.9 3.8 27 9.9 SE 19 24 10 13 1019.0 1018.8 0.0
25/04:00pm 24.0 20.1 3.3 26 10.1 SSE 13 20 7 11 1019.1 1018.9 0.0
25/03:30pm 24.2 19.9 3.5 26 10.2 SE 15 20 8 11 1019.2 1019.0 0.0
25/03:00pm 23.5 19.6 3.4 27 9.8 SSE 13 22 7 12 1019.4 1019.2 0.0
25/02:30pm 23.6 19.5 2.4 25 10.1 ESE 13 19 7 10 1019.6 1019.4 0.0
25/02:00pm 23.2 19.6 2.7 26 9.8 ESE 11 19 6 10 1019.9 1019.7 0.0
25/01:30pm 23.1 19.5 3.1 27 9.7 SE 11 15 6 8 1020.3 1020.1 0.0
25/01:00pm 22.9 18.6 3.4 28 9.4 ESE 15 24 8 13 1020.8 1020.5 0.0
25/12:30pm 22.6 18.4 3.7 29 9.2 ESE 15 24 8 13 1021.3 1021.0 0.0
25/12:00pm 22.3 17.7 3.9 30 8.9 E 17 28 9 15 1021.6 1021.3 0.0
25/11:30am 21.6 17.6 5.1 34 8.2 E 15 22 8 12 1022.1 1021.8 0.0
25/11:00am 20.0 15.9 4.1 35 7.6 ESE 15 20 8 11 1022.6 1022.3 0.0
25/10:30am 19.0 14.5 4.4 38 7.0 ESE 17 22 9 12 1022.8 1022.5 0.0
25/10:00am 18.1 13.7 4.7 41 6.4 E 17 22 9 12 1022.7 1022.4 0.0
25/09:30am 16.6 13.4 4.9 46 5.6 SE 11 15 6 8 1022.6 1022.3 0.0
25/09:00am 15.0 11.7 4.7 50 4.8 SE 11 13 6 7 1022.4 1022.1 0.0
25/08:30am 13.2 9.1 4.4 55 4.0 SE 15 17 8 9 1022.1 1021.8 0.0
25/08:00am 11.8 8.1 4.3 60 3.4 SE 13 17 7 9 1022.0 1021.7 0.0
25/07:30am 10.3 6.5 4.0 65 2.8 SE 13 17 7 9 1021.7 1021.4 0.0
25/07:00am 10.0 6.2 3.7 65 2.8 SE 13 17 7 9 1021.6 1021.3 0.0
25/06:30am 10.3 6.8 3.6 63 3.0 SE 11 13 6 7 1021.4 1021.1 0.0
25/06:00am 10.3 6.4 3.6 63 2.9 SE 13 13 7 7 1021.1 1020.8 0.0
25/05:30am 9.9 5.6 3.2 63 2.9 SE 15 15 8 8 1020.8 1020.5 0.0
25/05:00am 10.5 6.2 3.5 62 3.1 SE 15 17 8 9 1020.8 1020.5 0.0
25/04:30am 10.7 6.4 3.3 60 3.3 SE 15 17 8 9 1020.8 1020.5 0.0
25/04:00am 10.9 6.6 3.2 59 3.4 SE 15 17 8 9 1020.6 1020.4 0.0
25/03:30am 11.2 7.3 3.3 58 3.5 SE 13 15 7 8 1020.9 1020.6 0.0
25/03:00am 11.5 7.6 3.3 57 3.6 SE 13 13 7 7 1021.0 1020.7 0.0
25/02:30am 11.7 7.8 3.2 56 3.8 SE 13 17 7 9 1020.9 1020.6 0.0
25/02:00am 12.3 8.3 3.0 53 4.1 SE 13 15 7 8 1021.1 1020.8 0.0
25/01:30am 12.1 8.5 3.1 54 4.0 SSE 11 13 6 7 1021.2 1020.9 0.0
25/01:00am 12.6 9.0 3.0 52 4.2 SSE 11 13 6 7 1021.4 1021.1 0.0
25/12:30am 13.4 9.8 3.2 50 4.6 SSE 11 13 6 7 1021.7 1021.4 0.0
25/12:00am 13.4 9.8 3.2 50 4.6 SSE 11 13 6 7 1022.0 1021.7 0.0
 
Date/Time
EST
Temp
°C
App
Temp
°C
Dew
Point
°C
Rel
Hum
%
Delta-T
°C
Wind Press
QNH
hPa
Press
MSL
hPa
Rain since
9am
mm
Dir  Spd
km/h
Gust
km/h
Spd
kts
Gust
kts
24/11:30pm 13.7 9.7 2.9 48 4.8 SSE 13 15 7 8 1021.9 1021.6 0.0
24/11:00pm 14.3 10.3 2.9 46 5.1 SSE 13 17 7 9 1021.9 1021.6 0.0
24/10:30pm 14.7 10.3 2.6 44 5.4 SSE 15 17 8 9 1021.9 1021.6 0.0
24/10:00pm 15.6 10.4 2.4 41 5.9 SSE 19 22 10 12 1021.8 1021.5 0.0
24/09:30pm 16.4 11.2 2.4 39 6.3 SSE 19 22 10 12 1021.8 1021.5 0.0
24/09:00pm 17.5 12.1 2.3 36 6.9 SSE 20 24 11 13 1021.7 1021.4 0.0
24/08:30pm 18.0 12.8 2.7 36 7.1 SSE 19 22 10 12 1021.4 1021.1 0.0
24/08:00pm 18.2 13.1 2.9 36 7.1 S 19 20 10 11 1021.1 1020.8 0.0
24/07:30pm 18.7 13.5 2.5 34 7.5 S 19 20 10 11 1020.9 1020.6 0.0
24/07:00pm 19.1 14.7 2.5 33 7.7 SSE 15 17 8 9 1020.5 1020.3 0.0
24/06:30pm 20.3 15.9 2.6 31 8.3 SSE 15 17 8 9 1020.2 1020.0 0.0
24/06:00pm 21.5 16.6 2.2 28 9.0 SSE 17 19 9 10 1020.0 1019.8 0.0
24/05:30pm 23.0 18.1 1.9 25 10.0 SSE 17 20 9 11 1019.8 1019.6 0.0
24/05:00pm 23.7 18.3 1.4 23 10.5 SSE 19 26 10 14 1019.6 1019.4 0.0
24/04:30pm 24.3 19.3 1.2 22 10.9 SSE 17 22 9 12 1019.4 1019.2 0.0
24/04:00pm 24.5 19.1 1.4 22 10.9 S 19 26 10 14 1019.2 1019.0 0.0
24/03:30pm 24.2 19.2 1.2 22 10.8 SSE 17 24 9 13 1019.2 1019.0 0.0
24/03:00pm 24.4 19.1 1.9 23 10.7 SE 19 28 10 15 1019.2 1019.0 0.0
24/02:30pm 24.4 19.5 1.9 23 10.7 SE 17 24 9 13 1019.3 1019.1 0.0
24/02:00pm 23.8 18.2 1.4 23 10.5 SSE 20 30 11 16 1019.6 1019.4 0.0
24/01:30pm 23.6 18.5 3.0 26 10.0 SE 19 30 10 16 1019.9 1019.7 0.0
24/01:00pm 23.4 18.1 2.8 26 9.9 SE 20 30 11 16 1020.3 1020.1 0.0
24/12:30pm 22.9 18.0 3.9 29 9.3 SE 19 28 10 15 1021.0 1020.7 0.0
24/12:00pm 22.3 17.1 3.4 29 9.1 SSE 20 30 11 16 1021.7 1021.4 0.0
24/11:30am 21.4 16.0 4.5 33 8.3 SE 22 28 12 15 1022.0 1021.7 0.0
24/11:00am 21.1 15.8 5.1 35 7.9 SE 22 28 12 15 1022.4 1022.1 0.0
24/10:30am 20.0 14.7 4.9 37 7.4 SE 22 28 12 15 1022.7 1022.4 0.0
24/10:00am 19.3 13.3 5.4 40 6.8 SE 26 33 14 18 1022.9 1022.6 0.0
24/09:30am 17.6 11.6 5.2 44 6.0 SSE 26 32 14 17 1022.8 1022.5 0.0
24/09:00am 16.7 11.1 5.3 47 5.5 SSE 24 32 13 17 1022.6 1022.3 0.0
24/08:30am 15.6 10.3 5.2 50 5.0 S 22 26 12 14 1022.4 1022.1 0.0
24/08:00am 14.5 10.2 5.3 54 4.3 SSW 17 20 9 11 1022.1 1021.8 0.0
24/07:30am 13.2 8.9 5.1 58 3.8 SSW 17 20 9 11 1021.8 1021.5 0.0
24/07:00am 12.9 8.9 4.8 58 3.7 SSW 15 17 8 9 1021.5 1021.2 0.0
24/06:30am 12.9 8.9 4.8 58 3.7 SSW 15 17 8 9 1021.3 1021.0 0.0
24/06:00am 13.5 9.1 4.9 56 4.0 SSW 17 20 9 11 1020.9 1020.6 0.0
24/05:30am 13.9 9.1 4.8 54 4.2 SSW 19 20 10 11 1020.5 1020.3 0.0
24/05:00am 14.3 9.4 4.9 53 4.4 SSW 20 22 11 12 1020.3 1020.1 0.0
24/04:30am 14.8 9.5 5.1 52 4.6 SSW 22 26 12 14 1020.1 1019.9 0.0
24/04:00am 14.8 10.1 5.1 52 4.6 SW 19 22 10 12 1019.9 1019.7 0.0
24/03:30am 14.5 10.1 5.0 53 4.5 SW 17 19 9 10 1019.7 1019.5 0.0
24/03:00am 14.4 11.1 4.7 52 4.5 SW 11 13 6 7 1019.7 1019.5 0.0
24/02:30am 15.7 12.1 5.0 49 5.1 SW 13 17 7 9 1019.4 1019.2 0.0
24/02:00am 16.5 12.6 5.2 47 5.4 SW 15 17 8 9 1019.5 1019.3 0.0
24/01:30am 17.3 12.6 5.3 45 5.8 SW 19 22 10 12 1019.5 1019.3 0.0
24/01:00am 17.3 13.1 5.6 46 5.7 SW 17 20 9 11 1019.4 1019.2 0.0
24/12:30am 18.0 13.8 5.6 44 6.1 SW 17 20 9 11 1019.4 1019.2 0.0
24/12:00am 18.3 13.7 5.5 43 6.2 SW 19 20 10 11 1019.5 1019.3 0.0
 
Date/Time
EST
Temp
°C
App
Temp
°C
Dew
Point
°C
Rel
Hum
%
Delta-T
°C
Wind Press
QNH
hPa
Press
MSL
hPa
Rain since
9am
mm
Dir  Spd
km/h
Gust
km/h
Spd
kts
Gust
kts
23/11:30pm 19.4 14.1 5.1 39 7.0 SW 22 26 12 14 1019.6 1019.4 0.0
23/11:00pm 20.5 14.8 4.9 36 7.6 SW 24 32 13 17 1019.4 1019.2 0.0
23/10:30pm 20.1 15.0 4.2 35 7.7 SW 20 24 11 13 1019.1 1018.9 0.0
23/10:00pm 19.6 15.1 4.1 36 7.4 WSW 17 20 9 11 1018.9 1018.7 0.0
23/09:30pm 19.1 14.7 2.9 34 7.6 WSW 15 17 8 9 1018.7 1018.5 0.0
23/09:00pm 20.4 16.0 2.7 31 8.3 WSW 15 17 8 9 1018.5 1018.3 0.0
23/08:30pm 21.6 16.7 1.8 27 9.2 WSW 17 20 9 11 1018.3 1018.1 0.0
23/08:00pm 21.3 16.7 1.6 27 9.1 WSW 15 17 8 9 1017.8 1017.6 0.0
23/07:30pm 22.0 17.4 1.6 26 9.5 WSW 15 15 8 8 1017.5 1017.3 0.0
23/07:00pm 23.7 19.1 1.4 23 10.5 WSW 15 17 8 9 1017.1 1016.9 0.0
23/06:30pm 25.0 20.8 1.8 22 11.1 WSW 13 15 7 8 1016.8 1016.6 0.0
23/06:00pm 27.4 22.6 2.5 20 12.2 WSW 17 20 9 11 1016.5 1016.3 0.0
23/05:30pm 29.0 23.6 2.3 18 13.2 W 20 28 11 15 1016.2 1016.0 0.0
23/05:00pm 30.0 24.2 2.3 17 13.8 W 22 28 12 15 1016.1 1015.9 0.0
23/04:30pm 30.5 24.5 3.5 18 13.8 W 24 37 13 20 1016.0 1015.8 0.0
23/04:00pm 31.3 27.0 7.1 22 13.2 W 19 24 10 13 1015.9 1015.7 0.0
23/03:30pm 31.3 27.2 6.4 21 13.4 WNW 17 24 9 13 1015.9 1015.7 0.0
23/03:00pm 31.1 26.2 6.9 22 13.1 W 22 32 12 17 1015.9 1015.7 0.0
23/02:30pm 31.1 25.4 6.9 22 13.1 WNW 26 33 14 18 1015.8 1015.6 0.0
23/02:00pm 31.1 26.3 7.5 23 12.9 NW 22 32 12 17 1016.1 1015.9 0.0
23/01:30pm 31.0 26.0 8.1 24 12.7 NW 24 46 13 25 1016.6 1016.4 0.0
23/01:00pm 31.0 26.8 8.1 24 12.7 WNW 20 33 11 18 1017.1 1016.9 0.0
23/12:30pm 29.6 25.0 8.1 26 11.8 NW 22 35 12 19 1017.6 1017.4 0.0
23/12:00pm 29.4 26.0 9.0 28 11.3 NW 17 28 9 15 1018.2 1018.0 0.0
23/11:30am 28.6 24.6 8.3 28 11.1 N 19 24 10 13 1018.5 1018.3 0.0
23/11:00am 27.7 23.7 8.1 29 10.6 N 19 26 10 14 1018.9 1018.7 0.0
23/10:30am 26.7 22.5 8.2 31 10.0 N 20 24 11 13 1019.1 1018.9 0.0
23/10:00am 26.2 22.0 8.2 32 9.7 N 20 24 11 13 1019.1 1018.9 0.0

Other Formats:

Comma delimited format used in spreadsheet applications
http://www.bom.gov.au/fwo/IDQ60801/IDQ60801.95487.axf

JavaScript Object Notation format (JSON) in row-major order
http://www.bom.gov.au/fwo/IDQ60801/IDQ60801.95487.json